<?xml version="1.0" encoding="UTF-8" standalone="no" ?>
<gpx xmlns="http://www.topografix.com/GPX/1/1" xmlns:xsi="http://www.w3.org/2001/XMLSchema-instance" xsi:schemaLocation="http://www.topografix.com/GPX/1/1 http://www.topografix.com/GPX/1/1/gpx.xsd" version="1.1" creator="VisuGPX - https://www.visugpx.com">
  <metadata>
    <name>tour france</name>
  </metadata>
  <trk>
    <name><![CDATA[SES_8]]></name>
    <extensions>
      <line xmlns="http://www.topografix.com/GPX/gpx_style/0/2">
        <color>008800</color>
        <width>4</width>
      </line>
    </extensions>
    <trkseg>
      <trkpt lat="43.93738" lon="0.6067">
        <ele>76.6</ele>
        <time>2016-09-26T20:17:46Z</time>
        <extensions>
          <visugpx:TrkExtension xmlns:visugpx="https://www.visugpx.com/editgpx/">
            <visugpx:node>1</visugpx:node>
            </visugpx:TrkExtension>
        </extensions>
      </trkpt>
      <trkpt lat="43.93747" lon="0.60547">
        <ele>77.065</ele>
        <time>2016-09-26T20:18:06Z</time>
      </trkpt>
      <trkpt lat="43.93762" lon="0.60426">
        <ele>76.9</ele>
        <time>2016-09-26T20:18:26Z</time>
      </trkpt>
      <trkpt lat="43.93767" lon="0.60384">
        <ele>77.273</ele>
        <time>2016-09-26T20:18:46Z</time>
      </trkpt>
      <trkpt lat="43.93803" lon="0.60302">
        <ele>81.339</ele>
        <time>2016-09-26T20:19:06Z</time>
      </trkpt>
      <trkpt lat="43.93798" lon="0.60251">
        <ele>85.02</ele>
        <time>2016-09-26T20:19:26Z</time>
      </trkpt>
      <trkpt lat="43.93707" lon="0.5989">
        <ele>93.463</ele>
        <time>2016-09-26T20:19:46Z</time>
      </trkpt>
      <trkpt lat="43.93699" lon="0.59684">
        <ele>98.512</ele>
        <time>2016-09-26T20:20:06Z</time>
      </trkpt>
      <trkpt lat="43.93713" lon="0.59592">
        <ele>101.786</ele>
        <time>2016-09-26T20:20:26Z</time>
      </trkpt>
      <trkpt lat="43.93692" lon="0.59442">
        <ele>107.36</ele>
        <time>2016-09-26T20:20:46Z</time>
      </trkpt>
      <trkpt lat="43.93715" lon="0.59393">
        <ele>110.026</ele>
        <time>2016-09-26T20:21:06Z</time>
      </trkpt>
      <trkpt lat="43.93744" lon="0.59298">
        <ele>114.408</ele>
        <time>2016-09-26T20:21:26Z</time>
      </trkpt>
      <trkpt lat="43.93812" lon="0.59174">
        <ele>113.164</ele>
        <time>2016-09-26T20:21:46Z</time>
      </trkpt>
      <trkpt lat="43.93772" lon="0.59038">
        <ele>107.071</ele>
        <time>2016-09-26T20:22:06Z</time>
      </trkpt>
      <trkpt lat="43.93769" lon="0.58997">
        <ele>106.3</ele>
        <time>2016-09-26T20:22:26Z</time>
      </trkpt>
      <trkpt lat="43.93757" lon="0.58947">
        <ele>108</ele>
        <time>2016-09-26T20:22:46Z</time>
      </trkpt>
      <trkpt lat="43.93737" lon="0.58852">
        <ele>112.365</ele>
        <time>2016-09-26T20:23:06Z</time>
      </trkpt>
      <trkpt lat="43.93719" lon="0.58824">
        <ele>115</ele>
        <time>2016-09-26T20:23:26Z</time>
      </trkpt>
      <trkpt lat="43.93703" lon="0.58775">
        <ele>118.2</ele>
      </trkpt>
      <trkpt lat="43.93672" lon="0.58615">
        <ele>127.1</ele>
        <time>2016-09-26T20:23:46Z</time>
      </trkpt>
      <trkpt lat="43.93653" lon="0.58467">
        <ele>130.7</ele>
        <time>2016-09-26T20:24:06Z</time>
      </trkpt>
      <trkpt lat="43.93531" lon="0.58483">
        <ele>144.4</ele>
      </trkpt>
      <trkpt lat="43.93521" lon="0.58489">
        <ele>147.5</ele>
        <time>2016-09-26T20:24:26Z</time>
      </trkpt>
      <trkpt lat="43.93497" lon="0.58565">
        <ele>154.6</ele>
        <time>2016-09-26T20:24:46Z</time>
      </trkpt>
      <trkpt lat="43.93438" lon="0.58337">
        <ele>156.423</ele>
        <time>2016-09-26T20:25:06Z</time>
      </trkpt>
      <trkpt lat="43.93434" lon="0.58112">
        <ele>162.208</ele>
        <time>2016-09-26T20:25:26Z</time>
      </trkpt>
      <trkpt lat="43.93401" lon="0.57824">
        <ele>167.685</ele>
        <time>2016-09-26T20:25:46Z</time>
      </trkpt>
      <trkpt lat="43.93401" lon="0.57678">
        <ele>171.712</ele>
        <time>2016-09-26T20:26:06Z</time>
      </trkpt>
      <trkpt lat="43.93418" lon="0.57588">
        <ele>174.741</ele>
        <time>2016-09-26T20:26:26Z</time>
      </trkpt>
      <trkpt lat="43.93454" lon="0.57466">
        <ele>179.04</ele>
        <time>2016-09-26T20:26:46Z</time>
      </trkpt>
      <trkpt lat="43.93522" lon="0.57307">
        <ele>183</ele>
        <time>2016-09-26T20:27:06Z</time>
      </trkpt>
      <trkpt lat="43.93584" lon="0.57275">
        <ele>184.047</ele>
        <time>2016-09-26T20:27:26Z</time>
      </trkpt>
      <trkpt lat="43.93631" lon="0.57227">
        <ele>184.87</ele>
        <time>2016-09-26T20:27:46Z</time>
      </trkpt>
      <trkpt lat="43.93741" lon="0.56929">
        <ele>185.169</ele>
        <time>2016-09-26T20:28:06Z</time>
      </trkpt>
      <trkpt lat="43.93783" lon="0.56782">
        <ele>179.5</ele>
        <time>2016-09-26T20:28:26Z</time>
      </trkpt>
      <trkpt lat="43.93782" lon="0.56638">
        <ele>174.7</ele>
      </trkpt>
      <trkpt lat="43.93789" lon="0.56481">
        <ele>165.626</ele>
        <time>2016-09-26T20:28:46Z</time>
      </trkpt>
      <trkpt lat="43.93862" lon="0.56309">
        <ele>173.708</ele>
        <time>2016-09-26T20:29:06Z</time>
      </trkpt>
      <trkpt lat="43.9392" lon="0.5612">
        <ele>177.308</ele>
        <time>2016-09-26T20:29:26Z</time>
      </trkpt>
      <trkpt lat="43.93962" lon="0.55906">
        <ele>178.558</ele>
        <time>2016-09-26T20:29:46Z</time>
      </trkpt>
      <trkpt lat="43.9407" lon="0.55622">
        <ele>174.5</ele>
      </trkpt>
      <trkpt lat="43.94103" lon="0.55558">
        <ele>173.445</ele>
        <time>2016-09-26T20:30:06Z</time>
      </trkpt>
      <trkpt lat="43.94202" lon="0.5544">
        <ele>168.534</ele>
        <time>2016-09-26T20:30:26Z</time>
      </trkpt>
      <trkpt lat="43.94205" lon="0.55348">
        <ele>169.843</ele>
        <time>2016-09-26T20:30:46Z</time>
      </trkpt>
      <trkpt lat="43.94361" lon="0.5512">
        <ele>170.789</ele>
        <time>2016-09-26T20:31:06Z</time>
      </trkpt>
      <trkpt lat="43.94387" lon="0.5512">
        <ele>169.78</ele>
        <time>2016-09-26T20:31:26Z</time>
      </trkpt>
      <trkpt lat="43.9443" lon="0.55026">
        <ele>170.173</ele>
        <time>2016-09-26T20:31:46Z</time>
      </trkpt>
      <trkpt lat="43.94494" lon="0.54979">
        <ele>170.752</ele>
        <time>2016-09-26T20:32:06Z</time>
      </trkpt>
      <trkpt lat="43.94583" lon="0.54852">
        <ele>175.099</ele>
        <time>2016-09-26T20:32:26Z</time>
      </trkpt>
      <trkpt lat="43.9464" lon="0.54751">
        <ele>176.007</ele>
        <time>2016-09-26T20:32:46Z</time>
      </trkpt>
      <trkpt lat="43.94704" lon="0.54676">
        <ele>174.727</ele>
        <time>2016-09-26T20:33:06Z</time>
      </trkpt>
      <trkpt lat="43.94719" lon="0.54603">
        <ele>174.108</ele>
        <time>2016-09-26T20:33:26Z</time>
      </trkpt>
      <trkpt lat="43.9476" lon="0.545">
        <ele>173.6</ele>
        <time>2016-09-26T20:33:46Z</time>
      </trkpt>
      <trkpt lat="43.94673" lon="0.54414">
        <ele>175.8</ele>
      </trkpt>
      <trkpt lat="43.94585" lon="0.54301">
        <ele>175.062</ele>
        <time>2016-09-26T20:34:06Z</time>
      </trkpt>
      <trkpt lat="43.9443" lon="0.5415">
        <ele>172.081</ele>
        <time>2016-09-26T20:34:26Z</time>
      </trkpt>
      <trkpt lat="43.94365" lon="0.54065">
        <ele>170.07</ele>
        <time>2016-09-26T20:34:46Z</time>
      </trkpt>
      <trkpt lat="43.94328" lon="0.54062">
        <ele>171</ele>
        <time>2016-09-26T20:35:06Z</time>
      </trkpt>
      <trkpt lat="43.94309" lon="0.54089">
        <ele>168.537</ele>
        <time>2021-01-03T12:07:00Z</time>
      </trkpt>
      <trkpt lat="43.94265" lon="0.53924">
        <ele>157.96</ele>
        <time>2021-01-03T12:07:20Z</time>
      </trkpt>
      <trkpt lat="43.94261" lon="0.53904">
        <ele>159.7</ele>
      </trkpt>
      <trkpt lat="43.94239" lon="0.53867">
        <ele>154.3</ele>
      </trkpt>
      <trkpt lat="43.94221" lon="0.53802">
        <ele>143.419</ele>
        <time>2021-01-03T12:07:40Z</time>
      </trkpt>
      <trkpt lat="43.94232" lon="0.5373">
        <ele>140.4</ele>
        <time>2021-01-03T12:08:00Z</time>
      </trkpt>
      <trkpt lat="43.94279" lon="0.53683">
        <ele>136.4</ele>
      </trkpt>
      <trkpt lat="43.94329" lon="0.5365">
        <ele>127.622</ele>
        <time>2021-01-03T12:08:20Z</time>
      </trkpt>
      <trkpt lat="43.9436" lon="0.53613">
        <ele>123.4</ele>
      </trkpt>
      <trkpt lat="43.94363" lon="0.53606">
        <ele>121.314</ele>
        <time>2016-09-25T16:19:55Z</time>
      </trkpt>
      <trkpt lat="43.94317" lon="0.53483">
        <ele>107</ele>
      </trkpt>
      <trkpt lat="43.9421" lon="0.53166">
        <ele>110.2</ele>
        <time>2016-09-25T16:20:15Z</time>
      </trkpt>
      <trkpt lat="43.94181" lon="0.53176">
        <ele>108.8</ele>
        <time>2016-09-25T16:20:35Z</time>
      </trkpt>
      <trkpt lat="43.94112" lon="0.52922">
        <ele>115.047</ele>
        <time>2016-09-25T16:20:55Z</time>
      </trkpt>
      <trkpt lat="43.94139" lon="0.52898">
        <ele>117.416</ele>
        <time>2016-09-25T16:21:15Z</time>
      </trkpt>
      <trkpt lat="43.94125" lon="0.52816">
        <ele>120.8</ele>
      </trkpt>
      <trkpt lat="43.94119" lon="0.52808">
        <ele>121.7</ele>
        <time>2016-09-25T16:21:35Z</time>
      </trkpt>
      <trkpt lat="43.94109" lon="0.52793">
        <ele>122.371</ele>
        <time>2016-09-25T16:21:55Z</time>
      </trkpt>
      <trkpt lat="43.94091" lon="0.52755">
        <ele>125.7</ele>
      </trkpt>
      <trkpt lat="43.94075" lon="0.52701">
        <ele>127.052</ele>
        <time>2016-09-25T16:22:15Z</time>
      </trkpt>
      <trkpt lat="43.94056" lon="0.52607">
        <ele>130.7</ele>
        <time>2016-09-25T16:22:35Z</time>
      </trkpt>
      <trkpt lat="43.94017" lon="0.5251">
        <ele>136.454</ele>
        <time>2016-09-25T16:22:55Z</time>
      </trkpt>
      <trkpt lat="43.94002" lon="0.52459">
        <ele>137.6</ele>
      </trkpt>
      <trkpt lat="43.9399" lon="0.52401">
        <ele>139.471</ele>
        <time>2016-09-25T16:23:15Z</time>
      </trkpt>
      <trkpt lat="43.93991" lon="0.52319">
        <ele>142.441</ele>
        <time>2016-09-25T16:23:35Z</time>
      </trkpt>
      <trkpt lat="43.94011" lon="0.52203">
        <ele>150.615</ele>
        <time>2016-09-25T16:23:55Z</time>
      </trkpt>
      <trkpt lat="43.94016" lon="0.52092">
        <ele>155.408</ele>
        <time>2016-09-25T16:24:15Z</time>
      </trkpt>
      <trkpt lat="43.93866" lon="0.51944">
        <ele>179.5</ele>
        <time>2016-09-25T16:24:35Z</time>
      </trkpt>
      <trkpt lat="43.93798" lon="0.51881">
        <ele>182.5</ele>
        <time>2016-09-25T16:24:55Z</time>
      </trkpt>
      <trkpt lat="43.93796" lon="0.51815">
        <ele>185.2</ele>
      </trkpt>
      <trkpt lat="43.9383" lon="0.5154">
        <ele>191.959</ele>
        <time>2016-09-25T16:25:15Z</time>
      </trkpt>
      <trkpt lat="43.9382" lon="0.51405">
        <ele>194.198</ele>
        <time>2016-09-25T16:25:35Z</time>
      </trkpt>
      <trkpt lat="43.93837" lon="0.51347">
        <ele>195.4</ele>
      </trkpt>
      <trkpt lat="43.93871" lon="0.51302">
        <ele>193.514</ele>
        <time>2016-09-25T16:25:55Z</time>
      </trkpt>
      <trkpt lat="43.93954" lon="0.51122">
        <ele>191.285</ele>
        <time>2016-09-25T16:26:15Z</time>
      </trkpt>
      <trkpt lat="43.93985" lon="0.51027">
        <ele>187.658</ele>
        <time>2016-09-25T16:26:35Z</time>
      </trkpt>
      <trkpt lat="43.94056" lon="0.50937">
        <ele>173.527</ele>
        <time>2016-09-25T16:26:55Z</time>
      </trkpt>
      <trkpt lat="43.9409" lon="0.50879">
        <ele>168.865</ele>
        <time>2016-09-25T16:27:15Z</time>
      </trkpt>
      <trkpt lat="43.9412" lon="0.50854">
        <ele>169.7</ele>
      </trkpt>
      <trkpt lat="43.94127" lon="0.50838">
        <ele>168.068</ele>
        <time>2016-09-25T16:27:35Z</time>
      </trkpt>
      <trkpt lat="43.94198" lon="0.50645">
        <ele>163.814</ele>
        <time>2016-09-25T16:27:55Z</time>
      </trkpt>
      <trkpt lat="43.94208" lon="0.50617">
        <ele>167.2</ele>
      </trkpt>
      <trkpt lat="43.94266" lon="0.50517">
        <ele>170.908</ele>
        <time>2016-09-25T16:28:15Z</time>
      </trkpt>
      <trkpt lat="43.94317" lon="0.50345">
        <ele>174.9</ele>
        <time>2016-09-25T16:28:35Z</time>
      </trkpt>
      <trkpt lat="43.9436" lon="0.50132">
        <ele>177.799</ele>
        <time>2016-09-25T16:28:55Z</time>
      </trkpt>
      <trkpt lat="43.94425" lon="0.49989">
        <ele>177.388</ele>
        <time>2016-09-25T16:29:15Z</time>
      </trkpt>
      <trkpt lat="43.94469" lon="0.49882">
        <ele>177.8</ele>
      </trkpt>
      <trkpt lat="43.94479" lon="0.49832">
        <ele>177.087</ele>
        <time>2016-09-25T16:29:35Z</time>
      </trkpt>
      <trkpt lat="43.94502" lon="0.49701">
        <ele>175.923</ele>
        <time>2016-09-25T16:29:55Z</time>
      </trkpt>
      <trkpt lat="43.94532" lon="0.496">
        <ele>178</ele>
      </trkpt>
      <trkpt lat="43.94569" lon="0.49502">
        <ele>175.024</ele>
        <time>2016-09-25T16:30:15Z</time>
      </trkpt>
      <trkpt lat="43.94608" lon="0.4939">
        <ele>175.027</ele>
        <time>2016-09-25T16:30:35Z</time>
      </trkpt>
      <trkpt lat="43.94671" lon="0.49236">
        <ele>174.266</ele>
        <time>2016-09-25T16:30:55Z</time>
      </trkpt>
      <trkpt lat="43.94696" lon="0.49102">
        <ele>170.634</ele>
        <time>2016-09-25T16:31:15Z</time>
      </trkpt>
      <trkpt lat="43.947" lon="0.48945">
        <ele>168.8</ele>
        <time>2016-09-25T16:31:35Z</time>
      </trkpt>
      <trkpt lat="43.94747" lon="0.48954">
        <ele>166.408</ele>
        <time>2016-09-25T16:32:15Z</time>
      </trkpt>
      <trkpt lat="43.94832" lon="0.48954">
        <ele>159.889</ele>
        <time>2016-09-25T16:32:35Z</time>
      </trkpt>
      <trkpt lat="43.94875" lon="0.48924">
        <ele>156.746</ele>
        <time>2016-09-25T16:32:55Z</time>
      </trkpt>
      <trkpt lat="43.95051" lon="0.48999">
        <ele>140.595</ele>
        <time>2016-09-25T16:33:15Z</time>
      </trkpt>
      <trkpt lat="43.95117" lon="0.49045">
        <ele>141.714</ele>
        <time>2016-09-25T16:33:35Z</time>
      </trkpt>
      <trkpt lat="43.95229" lon="0.4901">
        <ele>153.15</ele>
        <time>2016-09-25T16:33:55Z</time>
      </trkpt>
      <trkpt lat="43.954" lon="0.48989">
        <ele>150.451</ele>
        <time>2016-09-25T16:34:15Z</time>
      </trkpt>
      <trkpt lat="43.95621" lon="0.49126">
        <ele>172.164</ele>
        <time>2016-09-25T16:34:35Z</time>
      </trkpt>
      <trkpt lat="43.95924" lon="0.49107">
        <ele>148.623</ele>
        <time>2016-09-25T16:34:55Z</time>
      </trkpt>
      <trkpt lat="43.9601" lon="0.49148">
        <ele>160.537</ele>
        <time>2016-09-25T16:35:15Z</time>
      </trkpt>
      <trkpt lat="43.9607" lon="0.49253">
        <ele>164.549</ele>
        <time>2016-09-25T16:35:35Z</time>
      </trkpt>
      <trkpt lat="43.96095" lon="0.49276">
        <ele>164.413</ele>
        <time>2016-09-25T16:35:55Z</time>
      </trkpt>
      <trkpt lat="43.96124" lon="0.4936">
        <ele>168.408</ele>
        <time>2016-09-25T16:36:15Z</time>
      </trkpt>
      <trkpt lat="43.96242" lon="0.49424">
        <ele>182.219</ele>
        <time>2016-09-25T16:36:35Z</time>
      </trkpt>
      <trkpt lat="43.96288" lon="0.49439">
        <ele>188.2</ele>
      </trkpt>
      <trkpt lat="43.96337" lon="0.49462">
        <ele>196</ele>
        <time>2016-09-25T16:36:55Z</time>
      </trkpt>
      <trkpt lat="43.96414" lon="0.49483">
        <ele>204.8</ele>
        <time>2016-09-25T16:37:15Z</time>
      </trkpt>
      <trkpt lat="43.96424" lon="0.49454">
        <ele>205.074</ele>
        <time>2016-09-25T16:37:35Z</time>
      </trkpt>
      <trkpt lat="43.96469" lon="0.4936">
        <ele>204.8</ele>
      </trkpt>
      <trkpt lat="43.96481" lon="0.49317">
        <ele>203.7</ele>
        <time>2016-09-25T16:37:55Z</time>
      </trkpt>
      <trkpt lat="43.96511" lon="0.49207">
        <ele>200.5</ele>
        <time>2016-09-25T16:38:15Z</time>
      </trkpt>
      <trkpt lat="43.96553" lon="0.49159">
        <ele>202.1</ele>
      </trkpt>
      <trkpt lat="43.96558" lon="0.4913">
        <ele>204.484</ele>
        <time>2016-09-25T16:38:35Z</time>
      </trkpt>
      <trkpt lat="43.966" lon="0.49062">
        <ele>204.163</ele>
        <time>2016-09-25T16:38:55Z</time>
      </trkpt>
      <trkpt lat="43.96767" lon="0.48961">
        <ele>202.417</ele>
        <time>2016-09-25T16:39:15Z</time>
      </trkpt>
      <trkpt lat="43.9685" lon="0.4906">
        <ele>205.087</ele>
        <time>2016-09-25T16:39:35Z</time>
      </trkpt>
      <trkpt lat="43.96985" lon="0.48961">
        <ele>209.815</ele>
        <time>2016-09-25T16:39:55Z</time>
      </trkpt>
      <trkpt lat="43.97008" lon="0.48948">
        <ele>210.9</ele>
      </trkpt>
      <trkpt lat="43.9705" lon="0.48881">
        <ele>210.008</ele>
        <time>2016-09-25T16:40:15Z</time>
      </trkpt>
      <trkpt lat="43.97105" lon="0.48797">
        <ele>211.2</ele>
      </trkpt>
      <trkpt lat="43.97118" lon="0.4879">
        <ele>210.8</ele>
        <time>2016-09-25T16:40:35Z</time>
      </trkpt>
      <trkpt lat="43.97229" lon="0.48718">
        <ele>210.094</ele>
        <time>2016-09-25T16:40:55Z</time>
      </trkpt>
      <trkpt lat="43.97282" lon="0.48719">
        <ele>210</ele>
      </trkpt>
      <trkpt lat="43.97326" lon="0.48704">
        <ele>210</ele>
        <time>2016-09-25T16:41:15Z</time>
      </trkpt>
      <trkpt lat="43.97426" lon="0.48665">
        <ele>210.092</ele>
        <time>2016-09-25T16:41:35Z</time>
      </trkpt>
      <trkpt lat="43.97434" lon="0.48726">
        <ele>208.8</ele>
        <time>2016-09-25T16:41:55Z</time>
      </trkpt>
      <trkpt lat="43.97511" lon="0.49165">
        <ele>191.539</ele>
        <time>2016-09-25T16:42:15Z</time>
      </trkpt>
      <trkpt lat="43.97775" lon="0.49426">
        <ele>181.192</ele>
        <time>2016-09-25T16:42:35Z</time>
      </trkpt>
      <trkpt lat="43.97927" lon="0.49514">
        <ele>180.041</ele>
        <time>2016-09-25T16:42:55Z</time>
      </trkpt>
      <trkpt lat="43.98049" lon="0.49523">
        <ele>185.141</ele>
        <time>2021-01-03T12:32:00Z</time>
      </trkpt>
      <trkpt lat="43.98009" lon="0.49694">
        <ele>180.081</ele>
        <time>2021-01-03T12:32:20Z</time>
      </trkpt>
      <trkpt lat="43.98111" lon="0.49785">
        <ele>182.009</ele>
        <time>2021-01-03T12:32:40Z</time>
      </trkpt>
      <trkpt lat="43.9811" lon="0.49834">
        <ele>183.008</ele>
        <time>2021-01-03T12:33:00Z</time>
      </trkpt>
      <trkpt lat="43.98143" lon="0.49912">
        <ele>184.94</ele>
        <time>2021-01-03T12:33:20Z</time>
      </trkpt>
      <trkpt lat="43.98184" lon="0.49821">
        <ele>183.197</ele>
        <time>2021-01-03T12:33:40Z</time>
      </trkpt>
      <trkpt lat="43.98203" lon="0.49742">
        <ele>183.736</ele>
        <time>2021-01-03T12:34:00Z</time>
      </trkpt>
      <trkpt lat="43.98211" lon="0.49711">
        <ele>185.6</ele>
        <time>2021-01-03T12:34:20Z</time>
      </trkpt>
      <trkpt lat="43.98219" lon="0.49682">
        <ele>185</ele>
      </trkpt>
      <trkpt lat="43.98221" lon="0.49653">
        <ele>185.4</ele>
        <time>2021-01-03T12:34:40Z</time>
      </trkpt>
      <trkpt lat="43.98227" lon="0.49615">
        <ele>185.3</ele>
      </trkpt>
      <trkpt lat="43.98229" lon="0.49597">
        <ele>185.1</ele>
        <time>2021-01-03T12:35:00Z</time>
      </trkpt>
      <trkpt lat="43.98216" lon="0.49544">
        <ele>186.865</ele>
        <time>2021-01-03T12:35:20Z</time>
      </trkpt>
      <trkpt lat="43.98194" lon="0.49497">
        <ele>190.044</ele>
        <time>2016-09-25T16:43:35Z</time>
      </trkpt>
      <trkpt lat="43.98158" lon="0.49366">
        <ele>192.819</ele>
        <time>2016-09-25T16:43:55Z</time>
      </trkpt>
      <trkpt lat="43.98161" lon="0.49075">
        <ele>201.009</ele>
        <time>2016-09-25T16:44:15Z</time>
      </trkpt>
      <trkpt lat="43.98168" lon="0.48965">
        <ele>203.319</ele>
        <time>2016-09-25T16:44:35Z</time>
      </trkpt>
      <trkpt lat="43.98195" lon="0.48781">
        <ele>206.908</ele>
        <time>2016-09-25T16:44:55Z</time>
      </trkpt>
      <trkpt lat="43.98172" lon="0.48512">
        <ele>210.087</ele>
        <time>2016-09-25T16:45:15Z</time>
      </trkpt>
      <trkpt lat="43.98188" lon="0.48499">
        <ele>212.3</ele>
      </trkpt>
      <trkpt lat="43.9822" lon="0.48436">
        <ele>213.3</ele>
      </trkpt>
      <trkpt lat="43.98249" lon="0.48345">
        <ele>207.444</ele>
        <time>2016-09-25T16:45:35Z</time>
      </trkpt>
      <trkpt lat="43.98265" lon="0.48278">
        <ele>206.6</ele>
        <time>2016-09-25T16:45:55Z</time>
      </trkpt>
      <trkpt lat="43.98283" lon="0.48221">
        <ele>202.982</ele>
        <time>2016-09-25T16:46:15Z</time>
      </trkpt>
      <trkpt lat="43.98294" lon="0.48118">
        <ele>194.348</ele>
        <time>2016-09-25T16:46:35Z</time>
      </trkpt>
      <trkpt lat="43.98329" lon="0.47888">
        <ele>178.8</ele>
        <time>2016-09-25T16:46:55Z</time>
      </trkpt>
      <trkpt lat="43.98351" lon="0.47766">
        <ele>175.612</ele>
        <time>2016-09-25T16:47:15Z</time>
      </trkpt>
      <trkpt lat="43.98541" lon="0.47749">
        <ele>180.451</ele>
        <time>2016-09-25T16:47:35Z</time>
      </trkpt>
      <trkpt lat="43.9858" lon="0.47538">
        <ele>176.212</ele>
        <time>2016-09-25T16:47:55Z</time>
      </trkpt>
      <trkpt lat="43.98538" lon="0.47463">
        <ele>172.432</ele>
        <time>2016-09-25T16:48:15Z</time>
      </trkpt>
      <trkpt lat="43.98538" lon="0.47368">
        <ele>166.7</ele>
        <time>2016-09-25T16:48:35Z</time>
      </trkpt>
      <trkpt lat="43.98518" lon="0.47325">
        <ele>164.3</ele>
      </trkpt>
      <trkpt lat="43.98506" lon="0.47283">
        <ele>165.208</ele>
        <time>2016-09-25T16:48:55Z</time>
      </trkpt>
      <trkpt lat="43.98494" lon="0.47243">
        <ele>160.6</ele>
      </trkpt>
      <trkpt lat="43.98486" lon="0.47224">
        <ele>158.6</ele>
        <time>2016-09-25T16:49:15Z</time>
      </trkpt>
      <trkpt lat="43.98452" lon="0.47133">
        <ele>156.514</ele>
        <time>2016-09-25T16:49:35Z</time>
      </trkpt>
      <trkpt lat="43.98412" lon="0.47046">
        <ele>151.5</ele>
        <time>2016-09-25T16:49:55Z</time>
      </trkpt>
      <trkpt lat="43.98356" lon="0.4697">
        <ele>150.342</ele>
        <time>2016-09-25T16:50:15Z</time>
      </trkpt>
      <trkpt lat="43.98336" lon="0.46934">
        <ele>150.4</ele>
      </trkpt>
      <trkpt lat="43.98316" lon="0.46864">
        <ele>148.7</ele>
      </trkpt>
      <trkpt lat="43.983" lon="0.46794">
        <ele>146.088</ele>
        <time>2016-09-25T16:50:35Z</time>
      </trkpt>
      <trkpt lat="43.98182" lon="0.46706">
        <ele>132.2</ele>
        <time>2016-09-25T16:50:55Z</time>
      </trkpt>
      <trkpt lat="43.98086" lon="0.4648">
        <ele>141.422</ele>
        <time>2016-09-25T16:51:15Z</time>
      </trkpt>
      <trkpt lat="43.98079" lon="0.46355">
        <ele>147.8</ele>
        <time>2016-09-25T16:51:35Z</time>
      </trkpt>
      <trkpt lat="43.98015" lon="0.46266">
        <ele>162.348</ele>
        <time>2016-09-25T16:51:55Z</time>
      </trkpt>
      <trkpt lat="43.98001" lon="0.4622">
        <ele>165.9</ele>
      </trkpt>
      <trkpt lat="43.97988" lon="0.46199">
        <ele>166.9</ele>
        <time>2016-09-25T16:52:15Z</time>
      </trkpt>
      <trkpt lat="43.97981" lon="0.46188">
        <ele>166.8</ele>
      </trkpt>
      <trkpt lat="43.97967" lon="0.46225">
        <ele>165.017</ele>
        <time>2016-09-25T16:52:35Z</time>
      </trkpt>
      <trkpt lat="43.97876" lon="0.46174">
        <ele>154.308</ele>
        <time>2016-09-25T16:52:55Z</time>
      </trkpt>
      <trkpt lat="43.97836" lon="0.46126">
        <ele>147.84</ele>
        <time>2016-09-25T16:53:15Z</time>
      </trkpt>
      <trkpt lat="43.97797" lon="0.46113">
        <ele>140.4</ele>
        <time>2016-09-25T16:53:35Z</time>
      </trkpt>
      <trkpt lat="43.97738" lon="0.46113">
        <ele>130.576</ele>
        <time>2016-09-25T16:53:55Z</time>
      </trkpt>
      <trkpt lat="43.97565" lon="0.46002">
        <ele>111.1</ele>
        <time>2016-09-25T16:54:15Z</time>
      </trkpt>
      <trkpt lat="43.9755" lon="0.45999">
        <ele>111.2</ele>
      </trkpt>
      <trkpt lat="43.9751" lon="0.4597">
        <ele>114.4</ele>
      </trkpt>
      <trkpt lat="43.974" lon="0.46011">
        <ele>121.2</ele>
        <time>2016-09-25T16:54:35Z</time>
      </trkpt>
      <trkpt lat="43.97351" lon="0.4604">
        <ele>124.892</ele>
        <time>2016-09-25T16:54:55Z</time>
      </trkpt>
      <trkpt lat="43.97243" lon="0.46028">
        <ele>139.635</ele>
        <time>2016-09-25T16:55:15Z</time>
      </trkpt>
      <trkpt lat="43.97184" lon="0.4598">
        <ele>151.6</ele>
      </trkpt>
      <trkpt lat="43.97128" lon="0.45912">
        <ele>162.464</ele>
        <time>2016-09-25T16:55:35Z</time>
      </trkpt>
      <trkpt lat="43.9712" lon="0.45884">
        <ele>165.7</ele>
      </trkpt>
      <trkpt lat="43.97119" lon="0.4585">
        <ele>164.778</ele>
        <time>2016-09-25T16:55:55Z</time>
      </trkpt>
      <trkpt lat="43.97121" lon="0.45794">
        <ele>163.133</ele>
        <time>2016-09-25T16:56:15Z</time>
      </trkpt>
      <trkpt lat="43.97112" lon="0.45755">
        <ele>159.5</ele>
      </trkpt>
      <trkpt lat="43.97075" lon="0.45671">
        <ele>149.1</ele>
        <time>2016-09-25T16:56:35Z</time>
      </trkpt>
      <trkpt lat="43.97076" lon="0.45636">
        <ele>145.6</ele>
      </trkpt>
      <trkpt lat="43.97077" lon="0.45588">
        <ele>139.1</ele>
        <time>2016-09-25T16:56:55Z</time>
      </trkpt>
      <trkpt lat="43.97044" lon="0.45277">
        <ele>101.4</ele>
      </trkpt>
      <trkpt lat="43.97043" lon="0.45239">
        <ele>101</ele>
      </trkpt>
      <trkpt lat="43.97033" lon="0.45213">
        <ele>101.3</ele>
        <time>2016-09-25T16:57:15Z</time>
      </trkpt>
      <trkpt lat="43.97008" lon="0.45142">
        <ele>102</ele>
      </trkpt>
      <trkpt lat="43.96984" lon="0.4508">
        <ele>104.2</ele>
        <time>2016-09-25T16:57:35Z</time>
      </trkpt>
      <trkpt lat="43.96906" lon="0.45045">
        <ele>105.429</ele>
        <time>2016-09-25T16:57:55Z</time>
      </trkpt>
      <trkpt lat="43.96824" lon="0.45032">
        <ele>104.028</ele>
        <time>2016-09-25T16:58:15Z</time>
      </trkpt>
      <trkpt lat="43.96776" lon="0.45003">
        <ele>110.3</ele>
        <time>2016-09-25T16:58:35Z</time>
      </trkpt>
      <trkpt lat="43.96645" lon="0.448">
        <ele>120.525</ele>
        <time>2016-09-25T16:58:55Z</time>
      </trkpt>
      <trkpt lat="43.96563" lon="0.44717">
        <ele>133.458</ele>
        <time>2016-09-25T16:59:15Z</time>
      </trkpt>
      <trkpt lat="43.96542" lon="0.44685">
        <ele>137.7</ele>
        <time>2016-09-25T16:59:35Z</time>
      </trkpt>
      <trkpt lat="43.96528" lon="0.44678">
        <ele>139.2</ele>
      </trkpt>
      <trkpt lat="43.96502" lon="0.44659">
        <ele>142.1</ele>
        <time>2016-09-25T16:59:55Z</time>
      </trkpt>
      <trkpt lat="43.96483" lon="0.44646">
        <ele>143.661</ele>
        <time>2016-09-25T17:00:15Z</time>
      </trkpt>
      <trkpt lat="43.9644" lon="0.44611">
        <ele>150.317</ele>
        <time>2016-09-25T17:00:35Z</time>
      </trkpt>
      <trkpt lat="43.96461" lon="0.44393">
        <ele>153.108</ele>
        <time>2016-09-25T17:00:55Z</time>
      </trkpt>
      <trkpt lat="43.96386" lon="0.44324">
        <ele>160.47</ele>
        <time>2016-09-25T17:01:15Z</time>
      </trkpt>
      <trkpt lat="43.96342" lon="0.44234">
        <ele>164.697</ele>
        <time>2016-09-25T17:01:35Z</time>
      </trkpt>
      <trkpt lat="43.96387" lon="0.44163">
        <ele>165.096</ele>
        <time>2016-09-25T17:01:55Z</time>
      </trkpt>
      <trkpt lat="43.96389" lon="0.44118">
        <ele>165.065</ele>
        <time>2016-09-25T17:02:15Z</time>
      </trkpt>
      <trkpt lat="43.96318" lon="0.44077">
        <ele>164.921</ele>
        <time>2016-09-25T17:02:35Z</time>
      </trkpt>
      <trkpt lat="43.96195" lon="0.44046">
        <ele>160.6</ele>
      </trkpt>
      <trkpt lat="43.96134" lon="0.44026">
        <ele>161.5</ele>
      </trkpt>
      <trkpt lat="43.96072" lon="0.44021">
        <ele>163.542</ele>
        <time>2016-09-25T17:02:55Z</time>
      </trkpt>
      <trkpt lat="43.95996" lon="0.44038">
        <ele>163.675</ele>
        <time>2016-09-25T17:03:15Z</time>
      </trkpt>
      <trkpt lat="43.95927" lon="0.44069">
        <ele>163.974</ele>
        <time>2016-09-25T17:03:35Z</time>
      </trkpt>
      <trkpt lat="43.95908" lon="0.43757">
        <ele>148.269</ele>
        <time>2016-09-25T17:03:55Z</time>
      </trkpt>
      <trkpt lat="43.95908" lon="0.43703">
        <ele>146.6</ele>
      </trkpt>
      <trkpt lat="43.95913" lon="0.43657">
        <ele>145.5</ele>
        <time>2016-09-25T17:04:15Z</time>
      </trkpt>
      <trkpt lat="43.95928" lon="0.43601">
        <ele>142.524</ele>
        <time>2016-09-25T17:04:35Z</time>
      </trkpt>
      <trkpt lat="43.9595" lon="0.43476">
        <ele>135.408</ele>
        <time>2016-09-25T17:04:55Z</time>
      </trkpt>
      <trkpt lat="43.9595" lon="0.43395">
        <ele>125.062</ele>
        <time>2016-09-25T17:05:15Z</time>
      </trkpt>
      <trkpt lat="43.95819" lon="0.43403">
        <ele>126.649</ele>
        <time>2016-09-25T17:05:35Z</time>
      </trkpt>
      <trkpt lat="43.95811" lon="0.43384">
        <ele>125.868</ele>
        <time>2016-09-25T17:05:55Z</time>
      </trkpt>
      <trkpt lat="43.95846" lon="0.43352">
        <ele>125.247</ele>
        <time>2016-09-25T17:06:15Z</time>
      </trkpt>
      <trkpt lat="43.95888" lon="0.43348">
        <ele>123.573</ele>
        <time>2016-09-25T17:06:35Z</time>
      </trkpt>
      <trkpt lat="43.95927" lon="0.43302">
        <ele>124.594</ele>
        <time>2016-09-25T17:06:55Z</time>
      </trkpt>
      <trkpt lat="43.96018" lon="0.43234">
        <ele>125.137</ele>
        <time>2016-09-25T17:07:15Z</time>
      </trkpt>
      <trkpt lat="43.961" lon="0.43189">
        <ele>124.366</ele>
        <time>2016-09-25T17:07:35Z</time>
      </trkpt>
      <trkpt lat="43.96162" lon="0.43103">
        <ele>125.147</ele>
        <time>2016-09-25T17:07:55Z</time>
      </trkpt>
      <trkpt lat="43.96251" lon="0.43032">
        <ele>123.829</ele>
        <time>2016-09-25T17:08:15Z</time>
      </trkpt>
      <trkpt lat="43.96297" lon="0.4294">
        <ele>124.221</ele>
        <time>2016-09-25T17:08:35Z</time>
      </trkpt>
      <trkpt lat="43.96352" lon="0.42882">
        <ele>124.208</ele>
        <time>2016-09-25T17:08:55Z</time>
      </trkpt>
      <trkpt lat="43.96402" lon="0.4283">
        <ele>124.92</ele>
        <time>2016-09-25T17:09:15Z</time>
      </trkpt>
      <trkpt lat="43.96458" lon="0.42704">
        <ele>131.077</ele>
        <time>2016-09-25T17:09:35Z</time>
      </trkpt>
      <trkpt lat="43.96486" lon="0.42543">
        <ele>133.026</ele>
        <time>2016-09-25T17:09:55Z</time>
      </trkpt>
      <trkpt lat="43.96466" lon="0.42425">
        <ele>131.965</ele>
        <time>2016-09-25T17:10:15Z</time>
      </trkpt>
      <trkpt lat="43.96416" lon="0.42234">
        <ele>124.931</ele>
        <time>2016-09-25T17:10:35Z</time>
      </trkpt>
      <trkpt lat="43.96362" lon="0.42099">
        <ele>125.522</ele>
        <time>2016-09-25T17:10:55Z</time>
      </trkpt>
      <trkpt lat="43.96352" lon="0.42015">
        <ele>126.775</ele>
        <time>2016-09-25T17:11:15Z</time>
      </trkpt>
      <trkpt lat="43.96338" lon="0.41953">
        <ele>130.164</ele>
        <time>2016-09-25T17:11:35Z</time>
      </trkpt>
      <trkpt lat="43.96319" lon="0.41648">
        <ele>139.966</ele>
        <time>2016-09-25T17:11:55Z</time>
      </trkpt>
      <trkpt lat="43.96336" lon="0.41537">
        <ele>142.629</ele>
        <time>2016-09-25T17:12:15Z</time>
      </trkpt>
      <trkpt lat="43.96376" lon="0.41444">
        <ele>145.521</ele>
        <time>2016-09-25T17:12:35Z</time>
      </trkpt>
      <trkpt lat="43.96348" lon="0.4135">
        <ele>149.308</ele>
        <time>2016-09-25T17:12:55Z</time>
      </trkpt>
      <trkpt lat="43.9631" lon="0.41152">
        <ele>163.012</ele>
        <time>2016-09-25T17:13:15Z</time>
      </trkpt>
      <trkpt lat="43.96307" lon="0.41101">
        <ele>165.739</ele>
        <time>2016-09-25T17:13:35Z</time>
      </trkpt>
      <trkpt lat="43.96158" lon="0.40511">
        <ele>156.598</ele>
        <time>2016-09-25T17:13:55Z</time>
      </trkpt>
      <trkpt lat="43.96138" lon="0.40378">
        <ele>151.577</ele>
        <time>2016-09-25T17:14:15Z</time>
      </trkpt>
      <trkpt lat="43.96063" lon="0.40034">
        <ele>144.713</ele>
        <time>2016-09-25T17:14:35Z</time>
      </trkpt>
      <trkpt lat="43.96009" lon="0.39751">
        <ele>144.464</ele>
        <time>2016-09-25T17:14:55Z</time>
      </trkpt>
      <trkpt lat="43.95993" lon="0.39573">
        <ele>143.067</ele>
        <time>2016-09-25T17:15:15Z</time>
      </trkpt>
      <trkpt lat="43.95965" lon="0.39361">
        <ele>142.716</ele>
        <time>2016-09-25T17:15:35Z</time>
      </trkpt>
      <trkpt lat="43.95972" lon="0.39165">
        <ele>140.167</ele>
        <time>2016-09-25T17:15:55Z</time>
      </trkpt>
      <trkpt lat="43.95944" lon="0.38949">
        <ele>134.481</ele>
        <time>2016-09-25T17:16:15Z</time>
      </trkpt>
      <trkpt lat="43.95913" lon="0.38603">
        <ele>117.919</ele>
        <time>2016-09-25T17:16:35Z</time>
      </trkpt>
      <trkpt lat="43.95928" lon="0.3849">
        <ele>114.608</ele>
        <time>2016-09-25T17:16:55Z</time>
      </trkpt>
      <trkpt lat="43.95921" lon="0.3826">
        <ele>106.442</ele>
        <time>2016-09-25T17:17:15Z</time>
      </trkpt>
      <trkpt lat="43.95887" lon="0.38234">
        <ele>104.799</ele>
        <time>2016-09-25T17:17:35Z</time>
      </trkpt>
      <trkpt lat="43.95762" lon="0.3806">
        <ele>87.028</ele>
        <time>2016-09-25T17:17:55Z</time>
      </trkpt>
      <trkpt lat="43.95647" lon="0.38013">
        <ele>76.597</ele>
        <time>2016-09-25T17:18:15Z</time>
      </trkpt>
      <trkpt lat="43.95712" lon="0.37664">
        <ele>79.7</ele>
      </trkpt>
      <trkpt lat="43.95715" lon="0.37655">
        <ele>79.4</ele>
        <time>2016-09-25T17:18:35Z</time>
      </trkpt>
      <trkpt lat="43.95685" lon="0.3758">
        <ele>81.554</ele>
        <time>2021-01-03T13:11:00Z</time>
      </trkpt>
      <trkpt lat="43.95702" lon="0.37552">
        <ele>80.9</ele>
      </trkpt>
      <trkpt lat="43.95716" lon="0.37519">
        <ele>81.2</ele>
        <time>2021-01-03T13:11:20Z</time>
      </trkpt>
      <trkpt lat="43.95758" lon="0.37371">
        <ele>83.196</ele>
        <time>2021-01-03T13:11:40Z</time>
      </trkpt>
      <trkpt lat="43.95758" lon="0.37221">
        <ele>84.783</ele>
        <time>2021-01-03T13:12:00Z</time>
      </trkpt>
      <trkpt lat="43.95746" lon="0.37179">
        <ele>85.025</ele>
        <time>2021-01-03T13:12:20Z</time>
      </trkpt>
      <trkpt lat="43.95706" lon="0.37153">
        <ele>85.017</ele>
        <time>2021-01-03T13:12:40Z</time>
      </trkpt>
      <trkpt lat="43.95727" lon="0.37085">
        <ele>82.908</ele>
        <time>2021-01-03T13:13:00Z</time>
      </trkpt>
      <trkpt lat="43.95733" lon="0.3699">
        <ele>77.564</ele>
        <time>2021-01-03T13:13:20Z</time>
      </trkpt>
      <trkpt lat="43.95717" lon="0.36951">
        <ele>75.621</ele>
        <time>2021-01-03T13:13:40Z</time>
      </trkpt>
      <trkpt lat="43.95673" lon="0.36911">
        <ele>73.22</ele>
        <time>2021-01-03T13:14:00Z</time>
      </trkpt>
      <trkpt lat="43.95677" lon="0.36842">
        <ele>70.029</ele>
        <time>2021-01-03T13:14:20Z</time>
      </trkpt>
      <trkpt lat="43.95586" lon="0.36826">
        <ele>70.075</ele>
        <time>2021-01-03T13:14:40Z</time>
      </trkpt>
      <trkpt lat="43.95565" lon="0.36796">
        <ele>70.076</ele>
        <time>2021-01-03T13:15:00Z</time>
      </trkpt>
      <trkpt lat="43.95551" lon="0.36618">
        <ele>71.869</ele>
        <time>2016-09-25T17:22:35Z</time>
      </trkpt>
      <trkpt lat="43.95458" lon="0.3647">
        <ele>71.098</ele>
        <time>2016-09-25T17:22:55Z</time>
      </trkpt>
      <trkpt lat="43.95345" lon="0.36429">
        <ele>70.799</ele>
        <time>2016-09-25T17:23:15Z</time>
      </trkpt>
      <trkpt lat="43.95365" lon="0.36324">
        <ele>72.307</ele>
        <time>2016-09-25T17:23:35Z</time>
      </trkpt>
      <trkpt lat="43.95399" lon="0.36258">
        <ele>73.827</ele>
        <time>2016-09-25T17:23:55Z</time>
      </trkpt>
      <trkpt lat="43.95356" lon="0.36223">
        <ele>74.408</ele>
        <time>2016-09-25T17:24:15Z</time>
      </trkpt>
      <trkpt lat="43.95302" lon="0.36219">
        <ele>80.125</ele>
        <time>2016-09-25T17:24:35Z</time>
      </trkpt>
      <trkpt lat="43.95246" lon="0.36174">
        <ele>82.812</ele>
        <time>2016-09-25T17:24:55Z</time>
      </trkpt>
      <trkpt lat="43.9519" lon="0.36027">
        <ele>84.2</ele>
      </trkpt>
      <trkpt lat="43.95161" lon="0.35935">
        <ele>86</ele>
        <time>2016-09-25T17:25:15Z</time>
      </trkpt>
      <trkpt lat="43.95127" lon="0.3585">
        <ele>87.9</ele>
      </trkpt>
      <trkpt lat="43.95084" lon="0.35779">
        <ele>87.07</ele>
        <time>2016-09-25T17:25:35Z</time>
      </trkpt>
      <trkpt lat="43.95033" lon="0.35759">
        <ele>86.766</ele>
        <time>2021-01-03T13:18:40Z</time>
      </trkpt>
      <trkpt lat="43.9496" lon="0.35751">
        <ele>87.6</ele>
        <time>2021-01-03T13:19:00Z</time>
      </trkpt>
      <trkpt lat="43.94981" lon="0.35614">
        <ele>88.95</ele>
        <time>2016-09-25T17:26:35Z</time>
      </trkpt>
      <trkpt lat="43.94945" lon="0.35571">
        <ele>89.029</ele>
        <time>2016-09-25T17:26:55Z</time>
      </trkpt>
      <trkpt lat="43.94923" lon="0.35522">
        <ele>89.932</ele>
        <time>2016-09-25T17:27:15Z</time>
      </trkpt>
      <trkpt lat="43.94903" lon="0.35445">
        <ele>96</ele>
        <time>2016-09-25T17:27:35Z</time>
      </trkpt>
      <trkpt lat="43.94778" lon="0.35333">
        <ele>108.011</ele>
        <time>2016-09-25T17:27:55Z</time>
      </trkpt>
      <trkpt lat="43.94752" lon="0.35251">
        <ele>110.108</ele>
        <time>2016-09-25T17:28:15Z</time>
      </trkpt>
      <trkpt lat="43.94769" lon="0.35103">
        <ele>112.119</ele>
        <time>2016-09-25T17:28:35Z</time>
      </trkpt>
      <trkpt lat="43.9472" lon="0.34745">
        <ele>106.896</ele>
        <time>2016-09-25T17:28:55Z</time>
      </trkpt>
      <trkpt lat="43.94696" lon="0.34644">
        <ele>107.915</ele>
        <time>2016-09-25T17:29:15Z</time>
      </trkpt>
      <trkpt lat="43.94645" lon="0.34552">
        <ele>105.844</ele>
        <time>2016-09-25T17:29:35Z</time>
      </trkpt>
      <trkpt lat="43.94542" lon="0.34509">
        <ele>109.76</ele>
        <time>2016-09-25T17:29:55Z</time>
      </trkpt>
      <trkpt lat="43.94491" lon="0.34445">
        <ele>115.061</ele>
        <time>2016-09-25T17:30:15Z</time>
      </trkpt>
      <trkpt lat="43.94475" lon="0.34331">
        <ele>116.284</ele>
        <time>2016-09-25T17:30:35Z</time>
      </trkpt>
      <trkpt lat="43.94394" lon="0.34009">
        <ele>110.393</ele>
        <time>2016-09-25T17:30:55Z</time>
      </trkpt>
      <trkpt lat="43.94333" lon="0.33895">
        <ele>107.833</ele>
        <time>2016-09-25T17:31:15Z</time>
      </trkpt>
      <trkpt lat="43.94285" lon="0.33586">
        <ele>118.923</ele>
        <time>2016-09-25T17:31:35Z</time>
      </trkpt>
      <trkpt lat="43.94304" lon="0.33302">
        <ele>135.3</ele>
        <time>2016-09-25T17:31:55Z</time>
      </trkpt>
      <trkpt lat="43.94241" lon="0.33217">
        <ele>139.708</ele>
        <time>2016-09-25T17:32:15Z</time>
      </trkpt>
      <trkpt lat="43.94188" lon="0.3311">
        <ele>150.519</ele>
        <time>2016-09-25T17:32:35Z</time>
      </trkpt>
      <trkpt lat="43.94153" lon="0.33069">
        <ele>153.086</ele>
        <time>2016-09-25T17:32:55Z</time>
      </trkpt>
      <trkpt lat="43.94126" lon="0.32932">
        <ele>153.375</ele>
        <time>2016-09-25T17:33:15Z</time>
      </trkpt>
      <trkpt lat="43.94097" lon="0.32857">
        <ele>150.914</ele>
        <time>2016-09-25T17:33:35Z</time>
      </trkpt>
      <trkpt lat="43.94083" lon="0.32805">
        <ele>154</ele>
      </trkpt>
      <trkpt lat="43.94076" lon="0.32736">
        <ele>154.9</ele>
      </trkpt>
      <trkpt lat="43.94059" lon="0.32675">
        <ele>159.2</ele>
        <time>2016-09-25T17:33:55Z</time>
      </trkpt>
      <trkpt lat="43.94024" lon="0.32556">
        <ele>168.371</ele>
        <time>2016-09-25T17:34:15Z</time>
      </trkpt>
      <trkpt lat="43.9401" lon="0.32451">
        <ele>172.894</ele>
        <time>2016-09-25T17:34:35Z</time>
      </trkpt>
      <trkpt lat="43.94009" lon="0.32359">
        <ele>174.453</ele>
        <time>2016-09-25T17:34:55Z</time>
      </trkpt>
      <trkpt lat="43.93967" lon="0.32159">
        <ele>175.034</ele>
        <time>2016-09-25T17:35:15Z</time>
      </trkpt>
      <trkpt lat="43.93932" lon="0.32054">
        <ele>175.055</ele>
        <time>2016-09-25T17:35:35Z</time>
      </trkpt>
      <trkpt lat="43.93925" lon="0.31923">
        <ele>175.01</ele>
        <time>2016-09-25T17:35:55Z</time>
      </trkpt>
      <trkpt lat="43.93828" lon="0.31754">
        <ele>154.808</ele>
        <time>2016-09-25T17:36:15Z</time>
      </trkpt>
      <trkpt lat="43.93774" lon="0.31627">
        <ele>142.749</ele>
        <time>2016-09-25T17:36:35Z</time>
      </trkpt>
      <trkpt lat="43.93635" lon="0.31513">
        <ele>128.786</ele>
        <time>2016-09-25T17:36:55Z</time>
      </trkpt>
      <trkpt lat="43.93539" lon="0.31355">
        <ele>110.715</ele>
        <time>2016-09-25T17:37:15Z</time>
      </trkpt>
      <trkpt lat="43.93535" lon="0.31307">
        <ele>106.674</ele>
        <time>2016-09-25T17:37:35Z</time>
      </trkpt>
      <trkpt lat="43.93516" lon="0.31295">
        <ele>106.89</ele>
        <time>2016-09-25T17:37:55Z</time>
      </trkpt>
      <trkpt lat="43.93516" lon="0.31215">
        <ele>106.5</ele>
        <time>2016-09-25T17:38:15Z</time>
      </trkpt>
      <trkpt lat="43.9352" lon="0.31127">
        <ele>102.4</ele>
        <time>2016-09-25T17:38:35Z</time>
      </trkpt>
      <trkpt lat="43.9354" lon="0.30957">
        <ele>95</ele>
        <time>2016-09-25T17:38:55Z</time>
      </trkpt>
      <trkpt lat="43.9349" lon="0.30829">
        <ele>84.5</ele>
      </trkpt>
      <trkpt lat="43.93431" lon="0.30721">
        <ele>80.9</ele>
        <time>2016-09-25T17:39:15Z</time>
      </trkpt>
      <trkpt lat="43.93399" lon="0.30565">
        <ele>76.6</ele>
        <time>2016-09-25T17:39:35Z</time>
      </trkpt>
      <trkpt lat="43.93354" lon="0.30475">
        <ele>79.22</ele>
        <time>2016-09-25T17:39:55Z</time>
      </trkpt>
      <trkpt lat="43.93341" lon="0.30325">
        <ele>82.208</ele>
        <time>2016-09-25T17:40:15Z</time>
      </trkpt>
      <trkpt lat="43.93406" lon="0.30305">
        <ele>81.421</ele>
        <time>2016-09-25T17:40:35Z</time>
      </trkpt>
      <trkpt lat="43.93508" lon="0.30222">
        <ele>80.4</ele>
        <time>2016-09-25T17:40:55Z</time>
      </trkpt>
      <trkpt lat="43.93601" lon="0.3006">
        <ele>80.3</ele>
        <time>2016-09-25T17:41:15Z</time>
      </trkpt>
      <trkpt lat="43.93781" lon="0.29874">
        <ele>78.9</ele>
        <time>2016-09-25T17:41:35Z</time>
      </trkpt>
      <trkpt lat="43.93703" lon="0.2961">
        <ele>89.032</ele>
        <time>2016-09-25T17:41:55Z</time>
      </trkpt>
      <trkpt lat="43.93721" lon="0.29539">
        <ele>90.063</ele>
        <time>2016-09-25T17:42:15Z</time>
      </trkpt>
      <trkpt lat="43.93789" lon="0.29205">
        <ele>107.986</ele>
        <time>2016-09-25T17:42:35Z</time>
      </trkpt>
      <trkpt lat="43.93806" lon="0.29122">
        <ele>111.6</ele>
        <time>2016-09-25T17:42:55Z</time>
      </trkpt>
      <trkpt lat="43.93812" lon="0.29112">
        <ele>111.5</ele>
        <time>2016-09-25T17:42:55Z</time>
      </trkpt>
      <trkpt lat="43.9384" lon="0.28956">
        <ele>110.4</ele>
      </trkpt>
      <trkpt lat="43.93856" lon="0.28778">
        <ele>113.275</ele>
        <time>2016-09-25T17:43:15Z</time>
      </trkpt>
      <trkpt lat="43.93856" lon="0.2858">
        <ele>120.428</ele>
        <time>2016-09-25T17:43:35Z</time>
      </trkpt>
      <trkpt lat="43.93884" lon="0.28344">
        <ele>124.82</ele>
        <time>2016-09-25T17:43:55Z</time>
      </trkpt>
      <trkpt lat="43.938" lon="0.28123">
        <ele>125.008</ele>
        <time>2016-09-25T17:44:15Z</time>
      </trkpt>
      <trkpt lat="43.93666" lon="0.27805">
        <ele>125.183</ele>
        <time>2016-09-25T17:44:35Z</time>
      </trkpt>
      <trkpt lat="43.93613" lon="0.27524">
        <ele>132.82</ele>
        <time>2016-09-25T17:44:55Z</time>
      </trkpt>
      <trkpt lat="43.9385" lon="0.27308">
        <ele>121.039</ele>
        <time>2016-09-25T17:45:15Z</time>
      </trkpt>
      <trkpt lat="43.93899" lon="0.27284">
        <ele>125.528</ele>
        <time>2016-09-25T17:45:35Z</time>
      </trkpt>
      <trkpt lat="43.94038" lon="0.2717">
        <ele>137.864</ele>
        <time>2016-09-25T17:45:55Z</time>
      </trkpt>
      <trkpt lat="43.94044" lon="0.26733">
        <ele>141.335</ele>
        <time>2016-09-25T17:46:15Z</time>
      </trkpt>
      <trkpt lat="43.94075" lon="0.26597">
        <ele>151.198</ele>
        <time>2016-09-25T17:46:35Z</time>
      </trkpt>
      <trkpt lat="43.94092" lon="0.26344">
        <ele>161.377</ele>
        <time>2016-09-25T17:46:55Z</time>
      </trkpt>
      <trkpt lat="43.94086" lon="0.26207">
        <ele>162.026</ele>
        <time>2016-09-25T17:47:15Z</time>
      </trkpt>
      <trkpt lat="43.94098" lon="0.26132">
        <ele>162.047</ele>
        <time>2016-09-25T17:47:35Z</time>
      </trkpt>
      <trkpt lat="43.94188" lon="0.25902">
        <ele>161.911</ele>
        <time>2016-09-25T17:47:55Z</time>
      </trkpt>
      <trkpt lat="43.94326" lon="0.25432">
        <ele>155.008</ele>
        <time>2016-09-25T17:48:15Z</time>
      </trkpt>
      <trkpt lat="43.94424" lon="0.25145">
        <ele>153.588</ele>
        <time>2016-09-25T17:48:35Z</time>
      </trkpt>
      <trkpt lat="43.94602" lon="0.24997">
        <ele>153.995</ele>
        <time>2016-09-25T17:48:55Z</time>
      </trkpt>
      <trkpt lat="43.94747" lon="0.24812">
        <ele>150.094</ele>
        <time>2016-09-25T17:49:15Z</time>
      </trkpt>
      <trkpt lat="43.94837" lon="0.24709">
        <ele>150.063</ele>
        <time>2016-09-25T17:49:35Z</time>
      </trkpt>
      <trkpt lat="43.94962" lon="0.24499">
        <ele>150.069</ele>
        <time>2016-09-25T17:49:55Z</time>
      </trkpt>
      <trkpt lat="43.95039" lon="0.24192">
        <ele>140.27</ele>
        <time>2016-09-25T17:50:15Z</time>
      </trkpt>
      <trkpt lat="43.95027" lon="0.24074">
        <ele>138.863</ele>
        <time>2016-09-25T17:50:35Z</time>
      </trkpt>
      <trkpt lat="43.94996" lon="0.23971">
        <ele>129.172</ele>
        <time>2016-09-25T17:50:55Z</time>
      </trkpt>
      <trkpt lat="43.94995" lon="0.23784">
        <ele>115.825</ele>
        <time>2016-09-25T17:51:15Z</time>
      </trkpt>
      <trkpt lat="43.94984" lon="0.23643">
        <ele>106.626</ele>
        <time>2016-09-25T17:51:35Z</time>
      </trkpt>
      <trkpt lat="43.94991" lon="0.23531">
        <ele>100.108</ele>
        <time>2016-09-25T17:51:55Z</time>
      </trkpt>
      <trkpt lat="43.95012" lon="0.23422">
        <ele>99.008</ele>
        <time>2016-09-25T17:52:15Z</time>
      </trkpt>
      <trkpt lat="43.95013" lon="0.23224">
        <ele>111.748</ele>
        <time>2016-09-25T17:52:35Z</time>
      </trkpt>
      <trkpt lat="43.95027" lon="0.2304">
        <ele>126.125</ele>
        <time>2016-09-25T17:52:55Z</time>
      </trkpt>
      <trkpt lat="43.95029" lon="0.22877">
        <ele>134.454</ele>
        <time>2016-09-25T17:53:15Z</time>
      </trkpt>
      <trkpt lat="43.95039" lon="0.22772">
        <ele>136.923</ele>
        <time>2016-09-25T17:53:35Z</time>
      </trkpt>
      <trkpt lat="43.95107" lon="0.22458">
        <ele>143.459</ele>
        <time>2016-09-25T17:53:55Z</time>
      </trkpt>
      <trkpt lat="43.95024" lon="0.22426">
        <ele>151.29</ele>
        <time>2016-09-25T17:54:15Z</time>
      </trkpt>
      <trkpt lat="43.94954" lon="0.22291">
        <ele>155.683</ele>
        <time>2016-09-25T17:54:35Z</time>
      </trkpt>
      <trkpt lat="43.94931" lon="0.22104">
        <ele>158.652</ele>
        <time>2016-09-25T17:54:55Z</time>
      </trkpt>
      <trkpt lat="43.94869" lon="0.2181">
        <ele>162.375</ele>
        <time>2016-09-25T17:55:15Z</time>
      </trkpt>
      <trkpt lat="43.94868" lon="0.2166">
        <ele>157.828</ele>
        <time>2016-09-25T17:55:35Z</time>
      </trkpt>
      <trkpt lat="43.94908" lon="0.21452">
        <ele>149.92</ele>
        <time>2016-09-25T17:55:55Z</time>
      </trkpt>
      <trkpt lat="43.95052" lon="0.20948">
        <ele>134.408</ele>
        <time>2016-09-25T17:56:15Z</time>
      </trkpt>
      <trkpt lat="43.95033" lon="0.20888">
        <ele>131.863</ele>
        <time>2016-09-25T17:56:35Z</time>
      </trkpt>
      <trkpt lat="43.95022" lon="0.20697">
        <ele>131.29</ele>
        <time>2016-09-25T17:56:55Z</time>
      </trkpt>
      <trkpt lat="43.95015" lon="0.20051">
        <ele>119.939</ele>
        <time>2016-09-25T17:57:15Z</time>
      </trkpt>
      <trkpt lat="43.94948" lon="0.20049">
        <ele>113.428</ele>
        <time>2016-09-25T17:57:35Z</time>
      </trkpt>
      <trkpt lat="43.94927" lon="0.19921">
        <ele>111.4</ele>
        <time>2016-09-25T17:57:55Z</time>
      </trkpt>
      <trkpt lat="43.9493" lon="0.19868">
        <ele>111.7</ele>
      </trkpt>
      <trkpt lat="43.94944" lon="0.19822">
        <ele>113.1</ele>
        <time>2016-09-25T17:58:15Z</time>
      </trkpt>
      <trkpt lat="43.94966" lon="0.19816">
        <ele>112.6</ele>
      </trkpt>
      <trkpt lat="43.95004" lon="0.19833">
        <ele>111</ele>
        <time>2016-09-25T17:58:35Z</time>
      </trkpt>
      <trkpt lat="43.94971" lon="0.19779">
        <ele>104.2</ele>
        <time>2016-09-25T17:58:55Z</time>
      </trkpt>
      <trkpt lat="43.9494" lon="0.19772">
        <ele>98.8</ele>
      </trkpt>
      <trkpt lat="43.94914" lon="0.19797">
        <ele>94.6</ele>
      </trkpt>
      <trkpt lat="43.94932" lon="0.19753">
        <ele>89.7</ele>
      </trkpt>
      <trkpt lat="43.9491" lon="0.19765">
        <ele>89.588</ele>
        <time>2016-09-25T17:59:15Z</time>
      </trkpt>
      <trkpt lat="43.94839" lon="0.19847">
        <ele>83.824</ele>
        <time>2016-09-25T17:59:35Z</time>
      </trkpt>
      <trkpt lat="43.94713" lon="0.19875">
        <ele>87.926</ele>
        <time>2016-09-25T17:59:55Z</time>
      </trkpt>
      <trkpt lat="43.94632" lon="0.19888">
        <ele>88.6</ele>
        <time>2016-09-25T18:00:15Z</time>
      </trkpt>
      <trkpt lat="43.94492" lon="0.1992">
        <ele>86.014</ele>
        <time>2016-09-25T18:00:35Z</time>
      </trkpt>
      <trkpt lat="43.94457" lon="0.19941">
        <ele>86.841</ele>
        <time>2016-09-25T18:00:55Z</time>
      </trkpt>
      <trkpt lat="43.9438" lon="0.19926">
        <ele>89.03</ele>
        <time>2016-09-25T18:01:15Z</time>
      </trkpt>
      <trkpt lat="43.94289" lon="0.19888">
        <ele>91.449</ele>
        <time>2016-09-25T18:01:35Z</time>
      </trkpt>
      <trkpt lat="43.94216" lon="0.19868">
        <ele>89.595</ele>
        <time>2016-09-25T18:01:55Z</time>
      </trkpt>
      <trkpt lat="43.94091" lon="0.19776">
        <ele>86.566</ele>
        <time>2016-09-25T18:02:15Z</time>
      </trkpt>
      <trkpt lat="43.94074" lon="0.19756">
        <ele>86.3</ele>
      </trkpt>
      <trkpt lat="43.94063" lon="0.19729">
        <ele>90.5</ele>
      </trkpt>
      <trkpt lat="43.94052" lon="0.19696">
        <ele>88.9</ele>
      </trkpt>
      <trkpt lat="43.94029" lon="0.19667">
        <ele>86.949</ele>
        <time>2016-09-25T18:02:35Z</time>
      </trkpt>
      <trkpt lat="43.93832" lon="0.19613">
        <ele>87.3</ele>
        <time>2016-09-25T18:02:55Z</time>
      </trkpt>
      <trkpt lat="43.93756" lon="0.19587">
        <ele>88.2</ele>
      </trkpt>
      <trkpt lat="43.93681" lon="0.19568">
        <ele>85.358</ele>
        <time>2016-09-25T18:03:15Z</time>
      </trkpt>
      <trkpt lat="43.93378" lon="0.19602">
        <ele>86.152</ele>
        <time>2016-09-25T18:03:35Z</time>
      </trkpt>
      <trkpt lat="43.93348" lon="0.19615">
        <ele>87.2</ele>
        <time>2016-09-25T18:03:55Z</time>
      </trkpt>
      <trkpt lat="43.93312" lon="0.19624">
        <ele>88.6</ele>
      </trkpt>
      <trkpt lat="43.93233" lon="0.19611">
        <ele>87.008</ele>
        <time>2016-09-25T18:04:15Z</time>
      </trkpt>
      <trkpt lat="43.93124" lon="0.19594">
        <ele>92.3</ele>
        <time>2016-09-25T18:04:35Z</time>
      </trkpt>
      <trkpt lat="43.93093" lon="0.19567">
        <ele>90.3</ele>
      </trkpt>
      <trkpt lat="43.93074" lon="0.19538">
        <ele>87.1</ele>
        <time>2016-09-25T18:04:55Z</time>
      </trkpt>
      <trkpt lat="43.92881" lon="0.19564">
        <ele>92.957</ele>
        <time>2016-09-25T18:05:15Z</time>
      </trkpt>
      <trkpt lat="43.9272" lon="0.19538">
        <ele>102.686</ele>
        <time>2016-09-25T18:05:35Z</time>
      </trkpt>
      <trkpt lat="43.92675" lon="0.19598">
        <ele>107.972</ele>
        <time>2016-09-25T18:05:55Z</time>
      </trkpt>
      <trkpt lat="43.92618" lon="0.1962">
        <ele>104.8</ele>
      </trkpt>
      <trkpt lat="43.92607" lon="0.19611">
        <ele>101.1</ele>
      </trkpt>
      <trkpt lat="43.92411" lon="0.19714">
        <ele>99.463</ele>
        <time>2016-09-25T18:06:15Z</time>
      </trkpt>
      <trkpt lat="43.9232" lon="0.19782">
        <ele>96.076</ele>
        <time>2016-09-25T18:06:35Z</time>
      </trkpt>
      <trkpt lat="43.92255" lon="0.19879">
        <ele>95.495</ele>
        <time>2016-09-25T18:06:55Z</time>
      </trkpt>
      <trkpt lat="43.92161" lon="0.20115">
        <ele>98.851</ele>
        <time>2016-09-25T18:07:15Z</time>
      </trkpt>
      <trkpt lat="43.92065" lon="0.20248">
        <ele>91.501</ele>
        <time>2016-09-25T18:07:35Z</time>
      </trkpt>
      <trkpt lat="43.92083" lon="0.20051">
        <ele>87.011</ele>
        <time>2016-09-25T18:07:55Z</time>
      </trkpt>
      <trkpt lat="43.9212" lon="0.19553">
        <ele>90.408</ele>
        <time>2016-09-25T18:08:15Z</time>
      </trkpt>
      <trkpt lat="43.9212" lon="0.19553">
        <ele>90.408</ele>
        <time>2016-09-25T18:08:15Z</time>
      </trkpt>
      <trkpt lat="43.92006" lon="0.19424">
        <ele>104.061</ele>
        <time>2016-09-25T18:08:35Z</time>
      </trkpt>
      <trkpt lat="43.91974" lon="0.19351">
        <ele>106.468</ele>
        <time>2016-09-25T18:08:55Z</time>
      </trkpt>
      <trkpt lat="43.9185" lon="0.1936">
        <ele>108.967</ele>
        <time>2016-09-25T18:09:15Z</time>
      </trkpt>
      <trkpt lat="43.91821" lon="0.1921">
        <ele>115.216</ele>
        <time>2016-09-25T18:09:35Z</time>
      </trkpt>
      <trkpt lat="43.91818" lon="0.1907">
        <ele>119.032</ele>
        <time>2016-09-25T18:09:55Z</time>
      </trkpt>
      <trkpt lat="43.91822" lon="0.18993">
        <ele>121.153</ele>
        <time>2016-09-25T18:10:15Z</time>
      </trkpt>
      <trkpt lat="43.91787" lon="0.18733">
        <ele>124.076</ele>
        <time>2016-09-25T18:10:35Z</time>
      </trkpt>
      <trkpt lat="43.91814" lon="0.18547">
        <ele>129.365</ele>
        <time>2016-09-25T18:10:55Z</time>
      </trkpt>
      <trkpt lat="43.91638" lon="0.183">
        <ele>137.559</ele>
        <time>2016-09-25T18:11:15Z</time>
      </trkpt>
      <trkpt lat="43.91538" lon="0.18235">
        <ele>143.503</ele>
        <time>2016-09-25T18:11:35Z</time>
      </trkpt>
      <trkpt lat="43.91507" lon="0.18173">
        <ele>140.523</ele>
        <time>2016-09-25T18:11:55Z</time>
      </trkpt>
      <trkpt lat="43.91433" lon="0.17986">
        <ele>140.008</ele>
        <time>2016-09-25T18:12:15Z</time>
      </trkpt>
      <trkpt lat="43.91205" lon="0.17718">
        <ele>146.381</ele>
        <time>2016-09-25T18:12:35Z</time>
      </trkpt>
      <trkpt lat="43.91184" lon="0.1763">
        <ele>145.068</ele>
        <time>2016-09-25T18:12:55Z</time>
      </trkpt>
      <trkpt lat="43.91188" lon="0.17465">
        <ele>145.077</ele>
        <time>2016-09-25T18:13:15Z</time>
      </trkpt>
      <trkpt lat="43.91184" lon="0.1725">
        <ele>143.456</ele>
        <time>2016-09-25T18:13:35Z</time>
      </trkpt>
      <trkpt lat="43.91117" lon="0.16989">
        <ele>152.572</ele>
        <time>2016-09-25T18:13:55Z</time>
      </trkpt>
      <trkpt lat="43.91101" lon="0.16878">
        <ele>154.073</ele>
        <time>2021-01-03T14:07:00Z</time>
      </trkpt>
      <trkpt lat="43.90932" lon="0.16564">
        <ele>156.466</ele>
        <time>2021-01-03T14:07:20Z</time>
      </trkpt>
      <trkpt lat="43.91096" lon="0.16573">
        <ele>159</ele>
        <time>2016-09-25T18:15:15Z</time>
      </trkpt>
      <trkpt lat="43.91113" lon="0.16388">
        <ele>157.041</ele>
        <time>2016-09-25T18:15:35Z</time>
      </trkpt>
      <trkpt lat="43.9114" lon="0.16315">
        <ele>155.481</ele>
        <time>2016-09-25T18:15:55Z</time>
      </trkpt>
      <trkpt lat="43.91128" lon="0.16268">
        <ele>153.709</ele>
        <time>2016-09-25T18:16:15Z</time>
      </trkpt>
      <trkpt lat="43.91142" lon="0.16068">
        <ele>138.508</ele>
        <time>2016-09-25T18:16:35Z</time>
      </trkpt>
      <trkpt lat="43.91105" lon="0.15916">
        <ele>136.05</ele>
        <time>2016-09-25T18:16:55Z</time>
      </trkpt>
      <trkpt lat="43.91127" lon="0.1569">
        <ele>131.027</ele>
        <time>2016-09-25T18:17:15Z</time>
      </trkpt>
      <trkpt lat="43.91035" lon="0.1566">
        <ele>130.756</ele>
        <time>2016-09-25T18:17:35Z</time>
      </trkpt>
      <trkpt lat="43.90972" lon="0.15622">
        <ele>129.455</ele>
        <time>2016-09-25T18:17:55Z</time>
      </trkpt>
      <trkpt lat="43.90941" lon="0.15622">
        <ele>129.051</ele>
        <time>2016-09-25T18:18:15Z</time>
      </trkpt>
      <trkpt lat="43.90839" lon="0.15553">
        <ele>129.162</ele>
        <time>2016-09-25T18:18:35Z</time>
      </trkpt>
      <trkpt lat="43.90799" lon="0.1551">
        <ele>128.915</ele>
        <time>2016-09-25T18:18:55Z</time>
      </trkpt>
      <trkpt lat="43.90562" lon="0.15439">
        <ele>145.934</ele>
        <time>2016-09-25T18:19:15Z</time>
      </trkpt>
      <trkpt lat="43.90505" lon="0.15409">
        <ele>151.095</ele>
        <time>2016-09-25T18:19:35Z</time>
      </trkpt>
      <trkpt lat="43.90487" lon="0.1542">
        <ele>152.949</ele>
        <time>2021-01-03T14:12:20Z</time>
      </trkpt>
      <trkpt lat="43.90456" lon="0.15414">
        <ele>154.023</ele>
        <time>2021-01-03T14:12:40Z</time>
      </trkpt>
      <trkpt lat="43.90442" lon="0.15427">
        <ele>155.508</ele>
        <time>2021-01-03T14:13:00Z</time>
      </trkpt>
      <trkpt lat="43.90439" lon="0.15364">
        <ele>149.035</ele>
        <time>2016-09-25T18:20:15Z</time>
      </trkpt>
      <trkpt lat="43.90464" lon="0.15347">
        <ele>147.072</ele>
        <time>2021-01-03T14:13:40Z</time>
      </trkpt>
      <trkpt lat="43.90446" lon="0.15176">
        <ele>123.541</ele>
        <time>2016-09-25T18:20:55Z</time>
      </trkpt>
      <trkpt lat="43.90419" lon="0.15158">
        <ele>119.86</ele>
        <time>2016-09-25T18:21:15Z</time>
      </trkpt>
      <trkpt lat="43.90398" lon="0.1513">
        <ele>118.266</ele>
        <time>2016-09-25T18:21:35Z</time>
      </trkpt>
      <trkpt lat="43.90293" lon="0.151">
        <ele>116.847</ele>
        <time>2016-09-25T18:21:55Z</time>
      </trkpt>
      <trkpt lat="43.90191" lon="0.15026">
        <ele>119.4</ele>
        <time>2016-09-25T18:22:15Z</time>
      </trkpt>
      <trkpt lat="43.90112" lon="0.14934">
        <ele>121.6</ele>
        <time>2016-09-25T18:22:35Z</time>
      </trkpt>
      <trkpt lat="43.90068" lon="0.14852">
        <ele>126.6</ele>
      </trkpt>
      <trkpt lat="43.90034" lon="0.14774">
        <ele>124.7</ele>
        <time>2016-09-25T18:22:55Z</time>
      </trkpt>
      <trkpt lat="43.89986" lon="0.14549">
        <ele>123.39</ele>
        <time>2016-09-25T18:23:15Z</time>
      </trkpt>
      <trkpt lat="43.8991" lon="0.13785">
        <ele>123.619</ele>
        <time>2016-09-25T18:23:35Z</time>
      </trkpt>
      <trkpt lat="43.89888" lon="0.13395">
        <ele>125.008</ele>
        <time>2016-09-25T18:23:55Z</time>
      </trkpt>
      <trkpt lat="43.89876" lon="0.13289">
        <ele>127.123</ele>
        <time>2016-09-25T18:24:15Z</time>
      </trkpt>
      <trkpt lat="43.89837" lon="0.13178">
        <ele>125.61</ele>
        <time>2016-09-25T18:24:35Z</time>
      </trkpt>
      <trkpt lat="43.89825" lon="0.13154">
        <ele>129.3</ele>
        <time>2016-09-25T18:24:55Z</time>
      </trkpt>
      <trkpt lat="43.89801" lon="0.13111">
        <ele>129.9</ele>
      </trkpt>
      <trkpt lat="43.89769" lon="0.13075">
        <ele>128.778</ele>
        <time>2016-09-25T18:25:15Z</time>
      </trkpt>
      <trkpt lat="43.89764" lon="0.13063">
        <ele>130.6</ele>
      </trkpt>
      <trkpt lat="43.89754" lon="0.13051">
        <ele>130.6</ele>
        <time>2016-09-25T18:25:35Z</time>
      </trkpt>
      <trkpt lat="43.8974" lon="0.1303">
        <ele>130.5</ele>
      </trkpt>
      <trkpt lat="43.89604" lon="0.12873">
        <ele>131.695</ele>
        <time>2016-09-25T18:25:55Z</time>
      </trkpt>
      <trkpt lat="43.89188" lon="0.12362">
        <ele>136.648</ele>
        <time>2016-09-25T18:26:15Z</time>
      </trkpt>
      <trkpt lat="43.88968" lon="0.11986">
        <ele>140.7</ele>
        <time>2016-09-25T18:26:35Z</time>
      </trkpt>
      <trkpt lat="43.8877" lon="0.11551">
        <ele>147.7</ele>
        <time>2016-09-25T18:26:55Z</time>
      </trkpt>
      <trkpt lat="43.88681" lon="0.11296">
        <ele>148.2</ele>
        <time>2016-09-25T18:27:15Z</time>
      </trkpt>
      <trkpt lat="43.88628" lon="0.11045">
        <ele>150.62</ele>
        <time>2016-09-25T18:27:35Z</time>
      </trkpt>
      <trkpt lat="43.88565" lon="0.1074">
        <ele>156.608</ele>
        <time>2016-09-25T18:27:55Z</time>
      </trkpt>
      <trkpt lat="43.88517" lon="0.10663">
        <ele>153.1</ele>
      </trkpt>
      <trkpt lat="43.88464" lon="0.10596">
        <ele>147.483</ele>
        <time>2016-09-25T18:28:15Z</time>
      </trkpt>
      <trkpt lat="43.8837" lon="0.10551">
        <ele>152.07</ele>
        <time>2016-09-25T18:28:35Z</time>
      </trkpt>
      <trkpt lat="43.88289" lon="0.10556">
        <ele>143.469</ele>
        <time>2016-09-25T18:28:55Z</time>
      </trkpt>
      <trkpt lat="43.87804" lon="0.10687">
        <ele>141.488</ele>
        <time>2016-09-25T18:29:15Z</time>
      </trkpt>
      <trkpt lat="43.8762" lon="0.10706">
        <ele>141.054</ele>
        <time>2016-09-25T18:29:35Z</time>
      </trkpt>
    </trkseg>
  </trk>
</gpx>